createdAt,value
2019-06-15T00:00:56.855Z,1012.94
2019-06-15T00:02:01.310Z,1012.91
2019-06-15T00:03:05.787Z,1012.91
2019-06-15T00:04:10.242Z,1012.92
2019-06-15T00:05:14.685Z,1012.92
2019-06-15T00:06:19.135Z,1012.92
2019-06-15T00:07:23.564Z,1012.92
2019-06-15T00:08:28.069Z,1012.93
2019-06-15T00:09:32.612Z,1012.92
2019-06-15T00:10:37.018Z,1012.89
2019-06-15T00:11:41.404Z,1012.89
2019-06-15T00:12:45.864Z,1012.87
2019-06-15T00:13:50.385Z,1012.85
2019-06-15T00:14:54.765Z,1012.87
2019-06-15T00:15:59.214Z,1012.84
2019-06-15T00:17:03.661Z,1012.85
2019-06-15T00:18:08.096Z,1012.85
2019-06-15T00:19:12.521Z,1012.83
2019-06-15T00:20:17.065Z,1012.83
2019-06-15T00:21:21.507Z,1012.83
2019-06-15T00:22:25.921Z,1012.84
2019-06-15T00:23:30.343Z,1012.84
2019-06-15T00:24:35.736Z,1012.83
2019-06-15T00:25:39.314Z,1012.85
2019-06-15T00:26:43.718Z,1012.85
2019-06-15T00:27:48.181Z,1012.85
2019-06-15T00:28:52.709Z,1012.83
2019-06-15T00:29:57.089Z,1012.83
2019-06-15T00:31:01.539Z,1012.80
2019-06-15T00:32:05.990Z,1012.80
2019-06-15T00:33:10.398Z,1012.82
2019-06-15T00:34:14.902Z,1012.82
2019-06-15T00:35:19.336Z,1012.81
2019-06-15T00:36:23.766Z,1012.79
2019-06-15T00:37:28.201Z,1012.82
2019-06-15T00:38:32.639Z,1012.83
2019-06-15T00:39:37.015Z,1012.82
2019-06-15T00:40:41.449Z,1012.83
2019-06-15T00:41:45.968Z,1012.81
2019-06-15T00:42:50.449Z,1012.79
2019-06-15T00:43:54.943Z,1012.77
2019-06-15T00:44:59.317Z,1012.76
2019-06-15T00:46:03.692Z,1012.75
2019-06-15T00:47:08.211Z,1012.71
2019-06-15T00:48:12.666Z,1012.67
2019-06-15T00:49:17.121Z,1012.65
2019-06-15T00:50:21.708Z,1012.65
2019-06-15T00:51:26.147Z,1012.63
2019-06-15T00:52:30.584Z,1012.61
2019-06-15T00:53:35.115Z,1012.60
2019-06-15T00:54:50.017Z,1012.56
2019-06-15T00:55:43.906Z,1012.59
2019-06-15T00:56:48.351Z,1012.55
2019-06-15T00:57:52.767Z,1012.55
2019-06-15T00:58:57.273Z,1012.53
2019-06-15T01:00:01.780Z,1012.51
2019-06-15T01:01:06.121Z,1012.47
2019-06-15T01:02:10.634Z,1012.49
2019-06-15T01:03:15.128Z,1012.52
2019-06-15T01:04:19.528Z,1012.54
2019-06-15T01:05:23.964Z,1012.54
2019-06-15T01:06:28.385Z,1012.58
2019-06-15T01:07:32.804Z,1012.55
2019-06-15T01:08:37.336Z,1012.54
2019-06-15T01:09:41.757Z,1012.53
2019-06-15T01:10:46.183Z,1012.52
2019-06-15T01:11:50.723Z,1012.53
2019-06-15T01:12:55.106Z,1012.54
2019-06-15T01:13:59.586Z,1012.55
2019-06-15T01:15:04.018Z,1012.59
2019-06-15T01:16:08.540Z,1012.59
2019-06-15T01:17:12.983Z,1012.59
2019-06-15T01:18:17.415Z,1012.53
2019-06-15T01:19:21.929Z,1012.45
2019-06-15T01:20:26.331Z,1012.35
2019-06-15T01:21:30.734Z,1012.29
2019-06-15T01:22:35.199Z,1012.19
2019-06-15T01:23:39.734Z,1012.16
2019-06-15T01:24:44.123Z,1012.09
2019-06-15T01:25:48.695Z,1012.12
2019-06-15T01:26:53.066Z,1012.11
2019-06-15T01:27:57.471Z,1012.10
2019-06-15T01:29:01.862Z,1012.09
2019-06-15T01:30:06.255Z,1012.05
2019-06-15T01:31:10.708Z,1012.04
2019-06-15T01:32:15.123Z,1012.00
2019-06-15T01:33:19.527Z,1011.97
2019-06-15T01:34:23.926Z,1011.92
2019-06-15T01:35:28.379Z,1011.90
2019-06-15T01:36:32.806Z,1011.91
2019-06-15T01:37:37.271Z,1011.92
2019-06-15T01:38:41.693Z,1011.90
2019-06-15T01:39:46.152Z,1011.87
2019-06-15T01:40:50.677Z,1011.83
2019-06-15T01:41:55.058Z,1011.82
2019-06-15T01:42:59.466Z,1011.82
2019-06-15T01:44:03.911Z,1011.80
2019-06-15T01:45:08.345Z,1011.78
2019-06-15T01:46:12.781Z,1011.74
2019-06-15T01:47:17.202Z,1011.72
2019-06-15T01:48:21.659Z,1011.71
2019-06-15T01:49:26.094Z,1011.70
2019-06-15T01:50:30.503Z,1011.70
2019-06-15T01:51:34.937Z,1011.69
2019-06-15T01:52:39.434Z,1011.68
2019-06-15T01:53:43.796Z,1011.67
2019-06-15T01:54:48.225Z,1011.63
2019-06-15T01:55:52.633Z,1011.62
2019-06-15T01:56:57.035Z,1011.61
2019-06-15T01:58:01.499Z,1011.58
2019-06-15T01:59:06.007Z,1011.55
2019-06-15T02:00:10.420Z,1011.52
2019-06-15T02:01:14.890Z,1011.51
2019-06-15T02:02:19.322Z,1011.53
2019-06-15T02:03:23.848Z,1011.51
2019-06-15T02:04:28.281Z,1011.51
2019-06-15T02:05:32.791Z,1011.49
2019-06-15T02:06:37.209Z,1011.51
2019-06-15T02:07:41.623Z,1011.49
2019-06-15T02:08:46.054Z,1011.46
2019-06-15T02:09:50.536Z,1011.45
2019-06-15T02:10:54.971Z,1011.46
2019-06-15T02:11:59.472Z,1011.42
2019-06-15T02:13:03.873Z,1011.40
2019-06-15T02:14:08.425Z,1011.39
2019-06-15T02:15:12.766Z,1011.40
2019-06-15T02:16:17.232Z,1011.39
2019-06-15T02:17:21.678Z,1011.37
2019-06-15T02:18:26.126Z,1011.38
2019-06-15T02:19:30.560Z,1011.37
2019-06-15T02:20:35.021Z,1011.35
2019-06-15T02:21:39.455Z,1011.34
2019-06-15T02:22:43.871Z,1011.33
2019-06-15T02:23:48.319Z,1011.30
2019-06-15T02:24:52.810Z,1011.29
2019-06-15T02:25:57.311Z,1011.27
2019-06-15T02:27:01.734Z,1011.26
2019-06-15T02:28:06.119Z,1011.24
2019-06-15T02:29:10.588Z,1011.20
2019-06-15T02:30:14.970Z,1011.18
2019-06-15T02:31:19.518Z,1011.16
2019-06-15T02:32:23.925Z,1011.15
2019-06-15T02:33:28.351Z,1011.12
2019-06-15T02:34:32.768Z,1011.12
2019-06-15T02:35:37.269Z,1011.10
2019-06-15T02:36:41.706Z,1011.08
2019-06-15T02:37:46.126Z,1011.06
2019-06-15T02:38:50.567Z,1011.04
2019-06-15T02:39:57.962Z,1011.01
2019-06-15T02:41:01.524Z,1010.97
2019-06-15T02:42:05.941Z,1010.94
2019-06-15T02:43:10.485Z,1010.93
2019-06-15T02:44:14.982Z,1010.90
2019-06-15T02:45:19.340Z,1010.90
2019-06-15T02:46:26.493Z,1010.89
2019-06-15T02:47:28.289Z,1010.92
2019-06-15T02:48:32.744Z,1010.88
2019-06-15T02:49:37.186Z,1010.89
2019-06-15T02:50:41.714Z,1010.87
2019-06-15T02:51:46.093Z,1010.88
2019-06-15T02:52:50.624Z,1010.87
2019-06-15T02:53:55.004Z,1010.85
2019-06-15T02:54:59.416Z,1010.86
2019-06-15T02:56:03.933Z,1010.87
2019-06-15T02:57:08.408Z,1010.86
2019-06-15T02:58:12.839Z,1010.87
2019-06-15T02:59:17.290Z,1010.89
2019-06-15T03:00:21.800Z,1010.87
2019-06-15T03:01:26.197Z,1010.91
2019-06-15T03:02:30.595Z,1010.89
2019-06-15T03:03:35.098Z,1010.88
2019-06-15T03:04:39.613Z,1010.87
2019-06-15T03:05:44.001Z,1010.86
2019-06-15T03:06:48.371Z,1010.87
2019-06-15T03:07:52.755Z,1010.84
2019-06-15T03:08:57.197Z,1010.83
2019-06-15T03:10:01.882Z,1010.82
2019-06-15T03:11:06.074Z,1010.84
2019-06-15T03:12:10.525Z,1010.85
2019-06-15T03:13:14.930Z,1010.85
2019-06-15T03:14:19.354Z,1010.85
2019-06-15T03:15:23.915Z,1010.85
2019-06-15T03:16:28.296Z,1010.83
2019-06-15T03:17:32.713Z,1010.84
2019-06-15T03:18:37.153Z,1010.82
2019-06-15T03:19:41.560Z,1010.81
2019-06-15T03:20:45.978Z,1010.80
2019-06-15T03:21:50.384Z,1010.78
2019-06-15T03:22:54.803Z,1010.78
2019-06-15T03:23:59.227Z,1010.81
2019-06-15T03:25:03.741Z,1010.82
2019-06-15T03:26:08.148Z,1010.82
2019-06-15T03:27:12.691Z,1010.84
2019-06-15T03:28:17.090Z,1010.82
2019-06-15T03:29:21.546Z,1010.83
2019-06-15T03:30:25.997Z,1010.82
2019-06-15T03:31:30.406Z,1010.81
2019-06-15T03:32:34.811Z,1010.77
2019-06-15T03:33:39.279Z,1010.76
2019-06-15T03:34:43.785Z,1010.71
2019-06-15T03:35:48.203Z,1010.67
2019-06-15T03:36:52.902Z,1010.63
2019-06-15T03:37:57.098Z,1010.61
2019-06-15T03:39:01.561Z,1010.56
2019-06-15T03:40:05.998Z,1010.55
2019-06-15T03:41:10.421Z,1010.51
2019-06-15T03:42:14.923Z,1010.49
2019-06-15T03:43:19.319Z,1010.52
2019-06-15T03:44:23.636Z,1010.51
2019-06-15T03:45:28.142Z,1010.54
2019-06-15T03:46:32.577Z,1010.55
2019-06-15T03:47:37.023Z,1010.57
2019-06-15T03:48:41.533Z,1010.55
2019-06-15T03:49:45.911Z,1010.51
2019-06-15T03:50:50.347Z,1010.45
2019-06-15T03:51:54.784Z,1010.37
2019-06-15T03:52:59.207Z,1010.34
2019-06-15T03:54:03.727Z,1010.28
2019-06-15T03:55:08.227Z,1010.26
2019-06-15T03:56:21.494Z,1010.27
2019-06-15T03:57:17.049Z,1010.25
2019-06-15T03:58:21.421Z,1010.26
2019-06-15T03:59:25.857Z,1010.21
2019-06-15T04:00:30.363Z,1010.19
2019-06-15T04:01:34.709Z,1010.15
2019-06-15T04:02:39.167Z,1010.07
2019-06-15T04:03:43.587Z,1010.04
2019-06-15T04:04:48.042Z,1010.01
2019-06-15T04:05:52.481Z,1010.01
2019-06-15T04:06:56.908Z,1009.98
2019-06-15T04:08:01.330Z,1009.96
2019-06-15T04:09:05.744Z,1009.94
2019-06-15T04:10:10.243Z,1009.91
2019-06-15T04:11:14.642Z,1009.88
2019-06-15T04:12:19.049Z,1009.87
2019-06-15T04:13:23.511Z,1009.85
2019-06-15T04:14:27.883Z,1009.84
2019-06-15T04:15:32.361Z,1009.82
2019-06-15T04:16:36.774Z,1009.81
2019-06-15T04:17:41.156Z,1009.78
2019-06-15T04:18:45.781Z,1009.76
2019-06-15T04:19:50.093Z,1009.70
2019-06-15T04:20:54.668Z,1009.74
2019-06-15T04:21:59.042Z,1009.73
2019-06-15T04:23:03.425Z,1009.76
2019-06-15T04:24:07.870Z,1009.78
2019-06-15T04:25:12.401Z,1009.80
2019-06-15T04:26:16.801Z,1009.83
2019-06-15T04:27:21.231Z,1009.86
2019-06-15T04:28:25.690Z,1009.88
2019-06-15T04:29:30.107Z,1009.94
2019-06-15T04:30:34.564Z,1009.95
2019-06-15T04:31:40.086Z,1009.97
2019-06-15T04:32:43.399Z,1009.98
2019-06-15T04:33:47.869Z,1009.98
2019-06-15T04:34:52.316Z,1009.93
2019-06-15T04:35:56.804Z,1009.91
2019-06-15T04:37:01.210Z,1009.89
2019-06-15T04:38:05.703Z,1009.88
2019-06-15T04:39:10.124Z,1009.83
2019-06-15T04:40:14.576Z,1009.78
2019-06-15T04:41:18.973Z,1009.78
2019-06-15T04:42:23.395Z,1009.73
2019-06-15T04:43:27.843Z,1009.71
2019-06-15T04:44:32.306Z,1009.71
2019-06-15T04:45:36.719Z,1009.71
2019-06-15T04:46:41.221Z,1009.70
2019-06-15T04:47:45.638Z,1009.69
2019-06-15T04:48:50.174Z,1009.62
2019-06-15T04:49:54.566Z,1009.57
2019-06-15T04:50:59.025Z,1009.55
2019-06-15T04:52:03.596Z,1009.54
2019-06-15T04:53:07.929Z,1009.54
2019-06-15T04:54:12.357Z,1009.55
2019-06-15T04:55:16.816Z,1009.57
2019-06-15T04:56:21.378Z,1009.56
2019-06-15T04:57:25.850Z,1009.54
2019-06-15T04:58:30.312Z,1009.50
2019-06-15T04:59:34.771Z,1009.48
2019-06-15T05:00:39.225Z,1009.45
2019-06-15T05:01:43.629Z,1009.46
2019-06-15T05:02:48.063Z,1009.44
2019-06-15T05:03:52.502Z,1009.48
2019-06-15T05:04:57.047Z,1009.54
2019-06-15T05:06:01.409Z,1009.56
2019-06-15T05:07:05.887Z,1009.62
2019-06-15T05:08:10.297Z,1009.67
2019-06-15T05:09:14.734Z,1009.66
2019-06-15T05:10:19.185Z,1009.68
2019-06-15T05:11:23.594Z,1009.68
2019-06-15T05:12:28.148Z,1009.67
2019-06-15T05:13:32.468Z,1009.60
2019-06-15T05:14:36.898Z,1009.59
2019-06-15T05:15:41.327Z,1009.56
2019-06-15T05:16:45.752Z,1009.55
2019-06-15T05:17:50.228Z,1009.53
2019-06-15T05:18:54.624Z,1009.51
2019-06-15T05:19:59.056Z,1009.49
2019-06-15T05:21:03.493Z,1009.50
2019-06-15T05:22:07.991Z,1009.47
2019-06-15T05:23:12.444Z,1009.38
2019-06-15T05:24:16.865Z,1009.33
2019-06-15T05:25:21.280Z,1009.30
2019-06-15T05:26:25.756Z,1009.27
2019-06-15T05:27:30.202Z,1009.26
2019-06-15T05:28:34.640Z,1009.30
2019-06-15T05:29:39.045Z,1009.29
2019-06-15T05:30:43.485Z,1009.30
2019-06-15T05:31:48.026Z,1009.29
2019-06-15T05:32:52.545Z,1009.27
2019-06-15T05:33:56.922Z,1009.26
2019-06-15T05:35:01.477Z,1009.20
2019-06-15T05:36:05.871Z,1009.16
2019-06-15T05:37:10.278Z,1009.12
2019-06-15T05:38:14.710Z,1009.09
2019-06-15T05:39:19.150Z,1009.06
2019-06-15T05:40:23.602Z,1009.04
2019-06-15T05:41:28.043Z,1009.03
2019-06-15T05:42:32.474Z,1009.07
2019-06-15T05:43:36.936Z,1009.13
2019-06-15T05:44:41.391Z,1009.16
2019-06-15T05:45:45.795Z,1009.16
2019-06-15T05:46:50.233Z,1009.16
2019-06-15T05:47:54.684Z,1009.18
2019-06-15T05:48:59.116Z,1009.21
2019-06-15T05:50:03.571Z,1009.21
2019-06-15T05:51:08.031Z,1009.20
2019-06-15T05:52:12.469Z,1009.22
2019-06-15T05:53:16.903Z,1009.21
2019-06-15T05:54:21.343Z,1009.20
2019-06-15T05:55:25.765Z,1009.20
2019-06-15T05:56:33.404Z,1009.20
2019-06-15T05:57:34.635Z,1009.18
2019-06-15T05:58:39.103Z,1009.14
2019-06-15T05:59:43.509Z,1009.17
2019-06-15T06:00:47.963Z,1009.17
2019-06-15T06:01:52.385Z,1009.16
2019-06-15T06:02:56.833Z,1009.16
2019-06-15T06:04:01.296Z,1009.13
2019-06-15T06:05:05.680Z,1009.14
2019-06-15T06:06:10.144Z,1009.09
2019-06-15T06:07:14.610Z,1009.08
2019-06-15T06:08:19.095Z,1009.04
2019-06-15T06:09:23.615Z,1009.01
2019-06-15T06:10:28.013Z,1008.99
2019-06-15T06:11:32.451Z,1008.91
2019-06-15T06:12:36.942Z,1008.84
2019-06-15T06:13:41.465Z,1008.74
2019-06-15T06:14:45.857Z,1008.67
2019-06-15T06:15:50.307Z,1008.62
2019-06-15T06:16:54.847Z,1008.57
2019-06-15T06:17:59.243Z,1008.57
2019-06-15T06:19:03.711Z,1008.61
2019-06-15T06:20:08.163Z,1008.61
2019-06-15T06:21:12.708Z,1008.63
2019-06-15T06:22:17.115Z,1008.65
2019-06-15T06:23:21.649Z,1008.70
2019-06-15T06:24:26.148Z,1008.69
2019-06-15T06:25:30.547Z,1008.68
2019-06-15T06:26:34.970Z,1008.74
2019-06-15T06:27:39.395Z,1008.70
2019-06-15T06:28:56.567Z,1008.71
2019-06-15T06:29:48.337Z,1008.69
2019-06-15T06:30:52.752Z,1008.68
2019-06-15T06:31:57.219Z,1008.61
2019-06-15T06:33:01.656Z,1008.62
2019-06-15T06:34:06.225Z,1008.60
2019-06-15T06:35:10.589Z,1008.56
2019-06-15T06:36:15.018Z,1008.60
2019-06-15T06:37:19.582Z,1008.62
2019-06-15T06:38:23.988Z,1008.65
2019-06-15T06:39:28.429Z,1008.71
2019-06-15T06:40:32.858Z,1008.72
2019-06-15T06:41:37.362Z,1008.75
2019-06-15T06:42:41.865Z,1008.79
2019-06-15T06:43:46.199Z,1008.81
2019-06-15T06:44:50.715Z,1008.82
2019-06-15T06:45:55.121Z,1008.86
2019-06-15T06:46:59.659Z,1008.88
2019-06-15T06:48:04.165Z,1008.91
2019-06-15T06:49:08.609Z,1008.89
2019-06-15T06:50:13.174Z,1008.87
2019-06-15T06:51:17.598Z,1008.79
2019-06-15T06:52:22.150Z,1008.76
2019-06-15T06:53:26.650Z,1008.77
2019-06-15T06:54:31.168Z,1008.76
2019-06-15T06:55:35.567Z,1008.75
2019-06-15T06:56:40.115Z,1008.70
2019-06-15T06:57:52.605Z,1008.65
2019-06-15T06:58:49.150Z,1008.65
2019-06-15T06:59:53.557Z,1008.61
2019-06-15T07:00:58.066Z,1008.58
2019-06-15T07:02:02.539Z,1008.63
2019-06-15T07:03:07.009Z,1008.60
2019-06-15T07:04:11.434Z,1008.61
2019-06-15T07:05:15.909Z,1008.63
2019-06-15T07:06:20.309Z,1008.68
2019-06-15T07:07:24.852Z,1008.64
2019-06-15T07:08:29.365Z,1008.64
2019-06-15T07:09:33.783Z,1008.67
2019-06-15T07:10:38.245Z,1008.71
2019-06-15T07:11:42.680Z,1008.70
2019-06-15T07:12:47.231Z,1008.74
2019-06-15T07:13:51.725Z,1008.75
2019-06-15T07:14:56.271Z,1008.76
2019-06-15T07:16:00.677Z,1008.78
2019-06-15T07:17:05.122Z,1008.80
2019-06-15T07:18:09.595Z,1008.78
2019-06-15T07:19:14.021Z,1008.81
2019-06-15T07:20:18.574Z,1008.79
2019-06-15T07:21:22.971Z,1008.74
2019-06-15T07:22:27.487Z,1008.72
2019-06-15T07:23:32.249Z,1008.70
2019-06-15T07:24:36.496Z,1008.65
2019-06-15T07:25:41.040Z,1008.62
2019-06-15T07:26:45.458Z,1008.57
2019-06-15T07:27:49.934Z,1008.61
2019-06-15T07:28:54.511Z,1008.53
2019-06-15T07:29:58.899Z,1008.52
2019-06-15T07:31:03.501Z,1008.52
2019-06-15T07:32:10.966Z,1008.57
2019-06-15T07:33:14.523Z,1008.61
2019-06-15T07:34:18.964Z,1008.60
2019-06-15T07:35:23.548Z,1008.63
2019-06-15T07:36:28.065Z,1008.62
2019-06-15T07:37:32.575Z,1008.65
2019-06-15T07:38:36.999Z,1008.60
2019-06-15T07:39:41.438Z,1008.56
2019-06-15T07:40:45.925Z,1008.55
2019-06-15T07:41:50.373Z,1008.54
2019-06-15T07:42:54.920Z,1008.55
2019-06-15T07:43:59.404Z,1008.56
2019-06-15T07:45:03.819Z,1008.60
2019-06-15T07:46:08.368Z,1008.52
2019-06-15T07:47:12.780Z,1008.51
2019-06-15T07:48:17.246Z,1008.38
2019-06-15T07:49:21.875Z,1008.27
2019-06-15T07:50:26.252Z,1008.23
2019-06-15T07:51:30.736Z,1008.13
2019-06-15T07:52:35.300Z,1008.13
2019-06-15T07:53:39.815Z,1008.00
2019-06-15T07:54:44.252Z,1007.91
2019-06-15T07:55:48.835Z,1007.80
2019-06-15T07:56:53.296Z,1007.68
2019-06-15T07:57:57.847Z,1007.57
2019-06-15T07:59:02.284Z,1007.46
2019-06-15T08:00:06.846Z,1007.42
2019-06-15T08:01:11.409Z,1007.39
2019-06-15T08:02:15.829Z,1007.33
2019-06-15T08:03:20.280Z,1007.38
2019-06-15T08:04:24.754Z,1007.27
2019-06-15T08:05:29.217Z,1007.29
2019-06-15T08:06:33.661Z,1007.36
2019-06-15T08:07:38.137Z,1007.35
2019-06-15T08:08:42.718Z,1007.35
2019-06-15T08:09:47.260Z,1007.40
2019-06-15T08:10:51.757Z,1007.45
2019-06-15T08:11:56.176Z,1007.45
2019-06-15T08:13:00.632Z,1007.34
2019-06-15T08:14:05.096Z,1007.31
2019-06-15T08:15:09.547Z,1007.23
2019-06-15T08:16:14.024Z,1007.20
2019-06-15T08:17:18.602Z,1007.10
2019-06-15T08:18:23.094Z,1007.00
2019-06-15T08:19:27.556Z,1006.92
2019-06-15T08:20:31.944Z,1006.85
2019-06-15T08:21:36.524Z,1006.83
2019-06-15T08:22:40.930Z,1006.66
2019-06-15T08:23:45.498Z,1006.59
2019-06-15T08:24:49.955Z,1006.52
2019-06-15T08:25:54.525Z,1006.57
2019-06-15T08:26:58.940Z,1006.56
2019-06-15T08:28:03.444Z,1006.63
2019-06-15T08:29:08.006Z,1006.60
2019-06-15T08:30:12.443Z,1006.74
2019-06-15T08:31:16.943Z,1006.74
2019-06-15T08:32:21.482Z,1006.81
2019-06-15T08:33:25.984Z,1006.85
2019-06-15T08:34:30.546Z,1006.84
2019-06-15T08:35:35.022Z,1006.87
2019-06-15T08:36:39.479Z,1006.99
2019-06-15T08:37:43.943Z,1006.96
2019-06-15T08:38:48.419Z,1006.98
2019-06-15T08:39:52.945Z,1007.00
2019-06-15T08:40:57.438Z,1007.06
2019-06-15T08:42:01.978Z,1007.06
2019-06-15T08:43:06.507Z,1007.09
2019-06-15T08:44:10.906Z,1007.17
2019-06-15T08:45:15.355Z,1007.13
2019-06-15T08:46:19.880Z,1007.18
2019-06-15T08:47:24.279Z,1007.11
2019-06-15T08:48:28.938Z,1007.13
2019-06-15T08:49:33.303Z,1007.22
2019-06-15T08:50:37.886Z,1007.09
2019-06-15T08:51:42.404Z,1007.08
2019-06-15T08:52:46.950Z,1007.00
2019-06-15T08:53:51.371Z,1007.01
2019-06-15T08:54:55.933Z,1006.94
2019-06-15T08:56:00.455Z,1006.98
2019-06-15T08:57:04.950Z,1007.07
2019-06-15T08:58:09.416Z,1007.11
2019-06-15T08:59:13.865Z,1007.25
2019-06-15T09:00:18.353Z,1007.21
2019-06-15T09:01:22.947Z,1007.37
2019-06-15T09:02:27.439Z,1007.38
2019-06-15T09:03:31.868Z,1007.44
2019-06-15T09:04:36.334Z,1007.49
2019-06-15T09:05:40.916Z,1007.55
2019-06-15T09:06:45.343Z,1007.66
2019-06-15T09:07:49.925Z,1007.72
2019-06-15T09:08:54.473Z,1007.81
2019-06-15T09:09:58.968Z,1007.90
2019-06-15T09:11:03.500Z,1007.91
2019-06-15T09:12:08.019Z,1007.93
2019-06-15T09:13:12.534Z,1007.94
2019-06-15T09:14:17.067Z,1007.93
2019-06-15T09:15:21.502Z,1007.85
2019-06-15T09:16:26.024Z,1007.77
2019-06-15T09:17:30.394Z,1007.69
2019-06-15T09:18:34.979Z,1007.68
2019-06-15T09:19:39.495Z,1007.74
2019-06-15T09:20:43.829Z,1007.76
2019-06-15T09:21:48.417Z,1007.88
2019-06-15T09:22:52.817Z,1007.96
2019-06-15T09:23:57.311Z,1008.04
2019-06-15T09:25:01.941Z,1008.10
2019-06-15T09:26:06.405Z,1008.12
2019-06-15T09:27:10.805Z,1008.18
2019-06-15T09:28:15.351Z,1008.20
2019-06-15T09:29:19.794Z,1008.20
2019-06-15T09:30:24.319Z,1008.20
2019-06-15T09:31:28.765Z,1008.16
2019-06-15T09:32:33.221Z,1008.14
2019-06-15T09:33:37.773Z,1008.11
2019-06-15T09:34:42.211Z,1008.07
2019-06-15T09:35:46.763Z,1008.10
2019-06-15T09:36:51.249Z,1008.16
2019-06-15T09:37:55.751Z,1008.21
2019-06-15T09:39:00.279Z,1008.27
2019-06-15T09:40:04.704Z,1008.26
2019-06-15T09:41:09.231Z,1008.26
2019-06-15T09:42:13.641Z,1008.25
2019-06-15T09:43:18.082Z,1008.25
2019-06-15T09:44:22.535Z,1008.22
2019-06-15T09:45:27.026Z,1008.19
2019-06-15T09:46:31.532Z,1008.18
2019-06-15T09:47:36.033Z,1008.14
2019-06-15T09:48:40.447Z,1008.10
2019-06-15T09:49:44.915Z,1008.05
2019-06-15T09:50:49.365Z,1008.03
2019-06-15T09:51:53.929Z,1008.01
2019-06-15T09:52:58.418Z,1007.96
2019-06-15T09:54:02.836Z,1007.92
2019-06-15T09:55:07.302Z,1007.85
2019-06-15T09:56:11.742Z,1007.75
2019-06-15T09:57:16.321Z,1007.71
2019-06-15T09:58:20.756Z,1007.65
2019-06-15T09:59:26.311Z,1007.62
2019-06-15T10:00:29.697Z,1007.61
2019-06-15T10:01:34.276Z,1007.62
2019-06-15T10:02:38.694Z,1007.65
2019-06-15T10:03:43.162Z,1007.72
2019-06-15T10:04:47.675Z,1007.73
2019-06-15T10:05:52.188Z,1007.74
2019-06-15T10:06:56.620Z,1007.71
2019-06-15T10:08:01.109Z,1007.71
2019-06-15T10:09:05.584Z,1007.70
2019-06-15T10:10:10.074Z,1007.70
2019-06-15T10:11:14.479Z,1007.70
2019-06-15T10:12:18.949Z,1007.74
2019-06-15T10:13:23.376Z,1007.73
2019-06-15T10:14:27.841Z,1007.76
2019-06-15T10:15:32.315Z,1007.75
2019-06-15T10:16:36.759Z,1007.70
2019-06-15T10:17:41.180Z,1007.69
2019-06-15T10:18:45.633Z,1007.67
2019-06-15T10:19:50.106Z,1007.65
2019-06-15T10:20:54.572Z,1007.65
2019-06-15T10:21:59.009Z,1007.65
2019-06-15T10:23:03.509Z,1007.66
2019-06-15T10:24:07.970Z,1007.68
2019-06-15T10:25:12.437Z,1007.68
2019-06-15T10:26:16.843Z,1007.68
2019-06-15T10:27:21.292Z,1007.67
2019-06-15T10:28:25.742Z,1007.67
2019-06-15T10:29:41.717Z,1007.67
2019-06-15T10:30:34.708Z,1007.67
2019-06-15T10:31:39.140Z,1007.68
2019-06-15T10:32:43.710Z,1007.68
2019-06-15T10:33:48.148Z,1007.71
2019-06-15T10:34:55.564Z,1007.72
2019-06-15T10:35:59.221Z,1007.77
2019-06-15T10:37:03.621Z,1007.75
2019-06-15T10:38:08.067Z,1007.74
2019-06-15T10:39:12.511Z,1007.73
2019-06-15T10:40:16.955Z,1007.75
2019-06-15T10:41:21.403Z,1007.76
2019-06-15T10:42:25.821Z,1007.73
2019-06-15T10:43:30.273Z,1007.72
2019-06-15T10:44:34.722Z,1007.70
2019-06-15T10:45:39.138Z,1007.66
2019-06-15T10:46:43.570Z,1007.59
2019-06-15T10:47:48.035Z,1007.58
2019-06-15T10:48:55.570Z,1007.57
2019-06-15T10:49:56.948Z,1007.56
2019-06-15T10:51:01.471Z,1007.58
2019-06-15T10:52:05.893Z,1007.56
2019-06-15T10:53:10.315Z,1007.54
2019-06-15T10:54:14.781Z,1007.57
2019-06-15T10:55:19.275Z,1007.56
2019-06-15T10:56:23.768Z,1007.57
2019-06-15T10:57:28.149Z,1007.58
2019-06-15T10:58:32.605Z,1007.56
2019-06-15T10:59:37.073Z,1007.55
2019-06-15T11:00:41.489Z,1007.58
2019-06-15T11:01:45.941Z,1007.61
2019-06-15T11:02:50.391Z,1007.60
2019-06-15T11:03:54.910Z,1007.60
2019-06-15T11:04:59.296Z,1007.62
2019-06-15T11:06:03.763Z,1007.62
2019-06-15T11:07:08.231Z,1007.60
2019-06-15T11:08:12.639Z,1007.60
2019-06-15T11:09:17.099Z,1007.58
2019-06-15T11:10:21.534Z,1007.55
2019-06-15T11:11:26.022Z,1007.57
2019-06-15T11:12:42.715Z,1007.52
2019-06-15T11:13:34.862Z,1007.50
2019-06-15T11:14:39.331Z,1007.46
2019-06-15T11:15:43.769Z,1007.41
2019-06-15T11:16:48.254Z,1007.38
2019-06-15T11:17:52.751Z,1007.43
2019-06-15T11:18:57.318Z,1007.46
2019-06-15T11:20:01.724Z,1007.48
2019-06-15T11:21:06.181Z,1007.48
2019-06-15T11:22:10.680Z,1007.50
2019-06-15T11:23:15.115Z,1007.50
2019-06-15T11:24:19.583Z,1007.48
2019-06-15T11:25:24.014Z,1007.46
2019-06-15T11:26:28.514Z,1007.43
2019-06-15T11:27:32.960Z,1007.40
2019-06-15T11:28:37.436Z,1007.39
2019-06-15T11:29:42.012Z,1007.35
2019-06-15T11:30:46.485Z,1007.33
2019-06-15T11:31:50.900Z,1007.29
2019-06-15T11:32:55.481Z,1007.26
2019-06-15T11:33:59.885Z,1007.22
2019-06-15T11:35:04.376Z,1007.21
2019-06-15T11:36:08.868Z,1007.12
2019-06-15T11:37:13.339Z,1007.13
2019-06-15T11:38:17.773Z,1007.12
2019-06-15T11:39:22.270Z,1007.12
2019-06-15T11:40:26.745Z,1007.09
2019-06-15T11:41:31.223Z,1007.03
2019-06-15T11:42:35.664Z,1007.00
2019-06-15T11:43:40.177Z,1007.00
2019-06-15T11:44:44.666Z,1007.00
2019-06-15T11:45:49.155Z,1006.99
2019-06-15T11:46:53.765Z,1007.01
2019-06-15T11:47:58.205Z,1007.07
2019-06-15T11:49:02.674Z,1007.08
2019-06-15T11:50:07.186Z,1007.05
2019-06-15T11:51:11.671Z,1007.08
2019-06-15T11:52:16.149Z,1007.11
2019-06-15T11:53:20.622Z,1007.08
2019-06-15T11:54:25.100Z,1007.08
2019-06-15T11:55:39.043Z,1007.08
2019-06-15T11:56:34.188Z,1007.12
2019-06-15T11:57:38.623Z,1007.14
2019-06-15T11:58:43.226Z,1007.09
2019-06-15T11:59:47.650Z,1007.10
2019-06-15T12:00:55.250Z,1007.13
2019-06-15T12:01:58.856Z,1007.08
2019-06-15T12:03:03.342Z,1007.07
2019-06-15T12:04:07.855Z,1007.05
2019-06-15T12:05:12.371Z,1007.04
2019-06-15T12:06:16.927Z,1007.02
2019-06-15T12:07:21.363Z,1007.05
2019-06-15T12:08:25.803Z,1007.07
2019-06-15T12:09:30.215Z,1007.07
2019-06-15T12:10:34.762Z,1007.11
2019-06-15T12:11:39.336Z,1007.09
2019-06-15T12:12:43.913Z,1007.09
2019-06-15T12:13:48.452Z,1007.09
2019-06-15T12:14:52.841Z,1007.07
2019-06-15T12:15:57.332Z,1007.04
2019-06-15T12:17:01.827Z,1007.03
2019-06-15T12:18:06.230Z,1006.99
2019-06-15T12:19:10.778Z,1007.00
2019-06-15T12:20:15.277Z,1007.00
2019-06-15T12:21:19.765Z,1007.02
2019-06-15T12:22:24.266Z,1007.07
2019-06-15T12:23:28.802Z,1007.07
2019-06-15T12:24:33.287Z,1007.09
2019-06-15T12:25:37.778Z,1007.06
2019-06-15T12:26:42.246Z,1007.10
2019-06-15T12:27:46.689Z,1007.10
2019-06-15T12:28:51.190Z,1007.12
2019-06-15T12:29:55.663Z,1007.10
2019-06-15T12:31:00.152Z,1007.06
2019-06-15T12:32:04.706Z,1007.07
2019-06-15T12:33:09.160Z,1007.09
2019-06-15T12:34:13.606Z,1007.11
2019-06-15T12:35:18.103Z,1007.09
2019-06-15T12:36:22.595Z,1007.07
2019-06-15T12:37:27.051Z,1007.10
2019-06-15T12:38:31.548Z,1007.10
2019-06-15T12:39:41.366Z,1007.10
2019-06-15T12:40:40.493Z,1007.12
2019-06-15T12:41:45.028Z,1007.16
2019-06-15T12:42:49.505Z,1007.16
2019-06-15T12:43:54.016Z,1007.18
2019-06-15T12:44:58.492Z,1007.20
2019-06-15T12:46:03.091Z,1007.20
2019-06-15T12:47:07.562Z,1007.20
2019-06-15T12:48:12.066Z,1007.23
2019-06-15T12:49:16.625Z,1007.22
2019-06-15T12:50:21.083Z,1007.25
2019-06-15T12:51:25.553Z,1007.22
2019-06-15T12:52:30.042Z,1007.21
2019-06-15T12:53:34.565Z,1007.23
2019-06-15T12:54:39.073Z,1007.22
2019-06-15T12:55:43.576Z,1007.23
2019-06-15T12:56:48.065Z,1007.21
2019-06-15T12:57:53.090Z,1007.22
2019-06-15T12:58:57.078Z,1007.23
2019-06-15T13:00:01.589Z,1007.27